Warning: Javascript must be enabled to use all the features on this page!


Page Loading - Please Wait...

Click to hideNews Bulletins

Peak Streamflow for the Nation

USGS 04183500 Maumee River at Antwerp OH

Paulding County, Ohio
Hydrologic Unit Code 04100005
Latitude  41°11'56", Longitude  84°44'40" NAD27
Drainage area 2,129  square miles
Gage datum 689.8 feet above NAVD88
Output formats
Table
Graph
Tab-separated file
peakfq (watstore) format
Reselect output format
Water
Year
Date Gage
Height
(feet)
Stream-
flow
(cfs)
1912 1912-04-02   19,200
1913 1913-03-27   40,0002
1914 1914-05-13   14,300
1915 1915-02-13   10,600
1916 1916-01-06   18,400
1917 1917-04-06   14,300
1918 1918-02-16   18,700
1919 1919-03-18   21,200
1920 1920-04-23   20,600
1921 1921-03-29   11,600
1922 1922-04-02 16.80 14,700
1923 1923-03-18 16.50 14,400
1924 1924-03-31 16.80 14,700
1925 1925-03-16 17.30 15,400
1926 1926-04-10 17.50 15,600
1927 1927-03-24 15.152 12,700
1928 1927-12-02 15.65 14,600
1929 1929-04-02 13.80 11,600
1930 1930-01-16 19.40 22,000
1931 1931-04-05 6.74 3,380
1932 1932-01-18 13.26 11,000
1933 1933-05-12 15.60 14,800
1934 1934-04-01 11.02 7,780
1935 1935-05-07 12.07 9,260
1936 1936-02-28 20.541 21,200
1937 1937-01-18   14,100
1938 1938-04-10   15,500
1939 1939-03-15 17.20 17,700
1940 1940-03-04 15.871 11,0002
1941 1941-06-14 7.32 3,720
1942 1942-02-07 14.20 11,300
1943 1943-05-20 20.29 26,200
1944 1944-04-13 18.83 20,700
1945 1945-05-18 16.50 15,100
1946 1946-06-14 12.182 8,840
1947 1947-06-04 14.43 11,600
1948 1948-03-23 15.56 13,400
1949 1949-02-17 16.00 13,700
1950 1950-02-17 18.70 20,000
1951 1951-02-22 16.782 15,100
1952 1952-01-28 16.152 14,000
1953 1953-03-05 13.88 10,800
1954 1954-03-26 11.02 7,500
1955 1955-03-06 15.59 13,000
1956 1956-05-03 15.09 12,900
1957 1957-04-11 17.36 16,800
1958 1957-12-21 14.48 12,000
1959 1959-02-13 20.221 20,0002
1960 1960-02-12 14.81 12,300
1961 1961-04-29 16.16 14,600
1962 1962-03-23 13.102 9,690
1963 1963-03-09 15.811 10,5002
1964 1964-04-22 13.24 9,890
1965 1965-03-06 14.06 11,400
1966 1966-01-02 11.20 7,920
1967 1966-12-09 18.54 19,000
1968 1968-02-04 17.79 17,500
1969 1969-01-31 18.46 18,800
1970 1970-04-21 14.05 11,400
1971 1971-02-20   13,0002
1972 1972-04-24 14.52 12,100
1973 1972-11-15 14.83 12,600
1974 1974-01-24 17.94 17,800
1975 1975-02-25 14.47 12,000
1976 1976-02-22 18.17 18,200
1977 1977-04-24 13.99 11,300
1978 1978-03-23 19.55 21,300
1979 1979-03-06 17.01 16,100
1980 1980-06-04 13.96 11,300
1981 1981-06-15 18.09 18,100
1982 1982-03-17 21.70 26,1007
2014 2014-04-05 20.713 15,900
2015 2015-06-28 23.84 28,500
2016 2015-12-30 19.96 14,100
2017 2017-05-26 21.71 18,800
2018 2018-02-22 21.79 19,100
2019 2019-05-02 20.27 14,800
2020 2020-01-13 20.58 15,600
?
  Peak Gage-Height Qualification Codes.
?
  Peak Streamflow Qualification Codes.